createdAt,value
2019-03-21T00:01:30.149Z,7.97
2019-03-21T00:03:53.726Z,8.00
2019-03-21T00:06:23.396Z,8.48
2019-03-21T00:08:55.111Z,9.08
2019-03-21T00:11:56.065Z,8.53
2019-03-21T00:14:37.084Z,7.50
2019-03-21T00:17:05.101Z,7.37
2019-03-21T00:19:34.316Z,7.83
2019-03-21T00:21:59.915Z,7.35
2019-03-21T00:24:21.240Z,7.75
2019-03-21T00:26:48.790Z,7.97
2019-03-21T00:29:15.486Z,7.20
2019-03-21T00:31:51.393Z,7.20
2019-03-21T00:34:14.307Z,7.55
2019-03-21T00:36:39.195Z,7.22
2019-03-21T00:38:59.765Z,7.80
2019-03-21T00:41:20.387Z,7.83
2019-03-21T00:43:41.088Z,7.33
2019-03-21T00:46:01.680Z,7.20
2019-03-21T00:48:22.314Z,7.17
2019-03-21T00:50:42.899Z,7.78
2019-03-21T00:53:03.658Z,9.20
2019-03-21T00:55:26.706Z,7.22
2019-03-21T00:57:46.621Z,7.25
2019-03-21T01:00:13.552Z,7.60
2019-03-21T01:02:34.169Z,7.62
2019-03-21T01:04:54.697Z,7.00
2019-03-21T01:07:15.175Z,7.53
2019-03-21T01:09:35.866Z,6.85
2019-03-21T01:11:56.494Z,6.95
2019-03-21T01:14:29.081Z,6.33
2019-03-21T01:16:39.124Z,6.22
2019-03-21T01:18:59.736Z,7.08
2019-03-21T01:21:21.717Z,6.90
2019-03-21T01:23:42.251Z,6.47
2019-03-21T01:26:05.870Z,6.80
2019-03-21T01:28:26.393Z,6.47
2019-03-21T01:30:46.933Z,6.12
2019-03-21T01:33:08.507Z,6.80
2019-03-21T01:35:30.069Z,5.43
2019-03-21T01:37:50.781Z,6.65
2019-03-21T01:40:17.633Z,7.50
2019-03-21T01:42:38.128Z,6.72
2019-03-21T01:44:58.585Z,6.50
2019-03-21T01:47:19.225Z,6.45
2019-03-21T01:49:39.748Z,6.47
2019-03-21T01:52:00.336Z,6.95
2019-03-21T01:54:20.910Z,5.92
2019-03-21T01:56:41.528Z,6.55
2019-03-21T01:59:02.306Z,6.37
2019-03-21T02:01:22.923Z,7.05
2019-03-21T02:03:43.440Z,6.97
2019-03-21T02:06:15.988Z,6.65
2019-03-21T02:08:57.210Z,4.65
2019-03-21T02:11:17.769Z,6.65
2019-03-21T02:13:38.305Z,6.92
2019-03-21T02:15:59.290Z,7.12
2019-03-21T02:18:20.980Z,6.62
2019-03-21T02:20:41.602Z,6.50
2019-03-21T02:23:02.134Z,6.50
2019-03-21T02:25:27.520Z,6.75
2019-03-21T02:27:48.365Z,7.08
2019-03-21T02:30:17.814Z,6.30
2019-03-21T02:32:38.444Z,6.53
2019-03-21T02:34:59.040Z,6.15
2019-03-21T02:37:20.594Z,6.97
2019-03-21T02:39:41.169Z,6.72
2019-03-21T02:42:01.865Z,6.12
2019-03-21T02:44:22.403Z,6.25
2019-03-21T02:46:42.937Z,6.30
2019-03-21T02:49:04.668Z,6.05
2019-03-21T02:51:26.293Z,6.95
2019-03-21T02:53:46.827Z,6.47
2019-03-21T02:56:13.370Z,6.28
2019-03-21T02:58:33.911Z,6.37
2019-03-21T03:00:54.535Z,6.65
2019-03-21T03:03:15.165Z,6.50
2019-03-21T03:05:36.347Z,6.65
2019-03-21T03:07:57.140Z,5.90
2019-03-21T03:10:29.664Z,5.90
2019-03-21T03:12:50.058Z,4.80
2019-03-21T03:15:23.206Z,6.03
2019-03-21T03:17:42.029Z,5.55
2019-03-21T03:20:03.039Z,6.55
2019-03-21T03:22:23.586Z,6.17
2019-03-21T03:24:44.203Z,6.30
2019-03-21T03:27:05.126Z,5.95
2019-03-21T03:29:25.633Z,6.25
2019-03-21T03:31:46.334Z,6.53
2019-03-21T03:34:06.895Z,6.10
2019-03-21T03:36:30.455Z,5.95
2019-03-21T03:38:51.063Z,6.55
2019-03-21T03:41:14.251Z,6.12
2019-03-21T03:43:34.856Z,6.42
2019-03-21T03:45:55.474Z,6.50
2019-03-21T03:48:16.159Z,6.40
2019-03-21T03:50:38.440Z,6.90
2019-03-21T03:52:59.651Z,6.75
2019-03-21T03:55:20.988Z,6.37
2019-03-21T03:57:42.738Z,6.33
2019-03-21T04:00:05.326Z,6.47
2019-03-21T04:02:25.681Z,6.40
2019-03-21T04:04:46.238Z,7.08
2019-03-21T04:07:07.016Z,6.28
2019-03-21T04:09:27.761Z,6.22
2019-03-21T04:11:56.105Z,6.30
2019-03-21T04:14:16.578Z,6.47
2019-03-21T04:16:37.207Z,5.85
2019-03-21T04:18:58.696Z,6.33
2019-03-21T04:21:20.866Z,7.30
2019-03-21T04:23:43.015Z,6.92
2019-03-21T04:26:09.274Z,4.83
2019-03-21T04:28:29.904Z,6.80
2019-03-21T04:30:50.464Z,6.58
2019-03-21T04:33:32.332Z,6.67
2019-03-21T04:35:44.834Z,6.25
2019-03-21T04:38:05.462Z,6.55
2019-03-21T04:40:26.163Z,7.08
2019-03-21T04:42:46.979Z,6.47
2019-03-21T04:45:10.902Z,7.28
2019-03-21T04:47:32.465Z,7.87
2019-03-21T04:49:53.027Z,7.15
2019-03-21T04:52:16.635Z,6.87
2019-03-21T04:54:37.095Z,6.58
2019-03-21T04:56:57.751Z,6.90
2019-03-21T04:59:18.309Z,7.90
2019-03-21T05:01:38.855Z,8.03
2019-03-21T05:03:59.436Z,6.97
2019-03-21T05:06:21.139Z,7.47
2019-03-21T05:08:41.703Z,6.87
2019-03-21T05:11:02.267Z,8.25
2019-03-21T05:13:22.827Z,8.55
2019-03-21T05:15:46.596Z,7.85
2019-03-21T05:18:10.134Z,8.60
2019-03-21T05:20:31.091Z,9.03
2019-03-21T05:22:51.569Z,7.78
2019-03-21T05:25:12.619Z,8.70
2019-03-21T05:27:41.127Z,8.30
2019-03-21T05:30:02.106Z,8.28
2019-03-21T05:32:22.750Z,8.48
2019-03-21T05:34:43.286Z,8.70
2019-03-21T05:37:04.111Z,9.40
2019-03-21T05:39:24.647Z,8.43
2019-03-21T05:41:46.449Z,9.70
2019-03-21T05:44:32.075Z,9.18
2019-03-21T05:46:52.616Z,8.73
2019-03-21T05:49:13.170Z,9.48
2019-03-21T05:51:53.065Z,9.55
2019-03-21T05:54:13.739Z,10.18
2019-03-21T05:56:34.317Z,9.95
2019-03-21T05:58:54.814Z,9.35
2019-03-21T06:01:15.305Z,9.53
2019-03-21T06:03:39.053Z,10.23
2019-03-21T06:06:11.698Z,10.60
2019-03-21T06:08:37.870Z,8.58
2019-03-21T06:10:58.422Z,12.35
2019-03-21T06:13:19.080Z,11.12
2019-03-21T06:15:41.381Z,11.60
2019-03-21T06:18:16.665Z,10.75
2019-03-21T06:20:42.944Z,11.63
2019-03-21T06:23:33.718Z,11.50
2019-03-21T06:25:57.337Z,10.23
2019-03-21T06:28:17.980Z,10.70
2019-03-21T06:30:39.542Z,11.63
2019-03-21T06:33:00.057Z,10.82
2019-03-21T06:35:22.167Z,10.65
2019-03-21T06:37:42.678Z,10.43
2019-03-21T06:40:03.915Z,10.32
2019-03-21T06:42:24.641Z,10.30
2019-03-21T06:44:45.166Z,10.35
2019-03-21T06:47:05.952Z,6.70
2019-03-21T06:49:26.543Z,8.78
2019-03-21T06:51:47.095Z,7.00
2019-03-21T06:54:07.850Z,7.37
2019-03-21T06:56:28.305Z,6.60
2019-03-21T06:58:48.283Z,5.55
2019-03-21T07:01:08.543Z,5.73
2019-03-21T07:03:28.816Z,5.03
2019-03-21T07:05:49.160Z,5.47
2019-03-21T07:08:09.439Z,5.23
2019-03-21T07:10:29.745Z,5.30
2019-03-21T07:12:49.928Z,5.23
2019-03-21T07:15:12.563Z,4.80
2019-03-21T07:17:32.792Z,5.43
2019-03-21T07:19:52.971Z,4.57
2019-03-21T07:22:13.343Z,5.30
2019-03-21T07:24:33.650Z,4.93
2019-03-21T07:26:54.100Z,5.17
2019-03-21T07:29:14.367Z,4.37
2019-03-21T07:31:36.144Z,5.10
2019-03-21T07:33:56.467Z,4.80
2019-03-21T07:36:16.800Z,5.10
2019-03-21T07:38:37.061Z,5.10
2019-03-21T07:40:57.280Z,5.00
2019-03-21T07:43:17.554Z,4.60
2019-03-21T07:45:37.880Z,4.57
2019-03-21T07:47:58.220Z,4.40
2019-03-21T07:50:18.535Z,4.50
2019-03-21T07:52:47.089Z,4.43
2019-03-21T07:55:08.716Z,4.57
2019-03-21T07:57:29.039Z,3.83
2019-03-21T07:59:49.264Z,4.63
2019-03-21T08:02:09.560Z,4.53
2019-03-21T08:04:30.316Z,4.10
2019-03-21T08:06:50.578Z,4.33
2019-03-21T08:09:10.856Z,4.20
2019-03-21T08:11:31.093Z,4.33
2019-03-21T08:13:51.477Z,4.60
2019-03-21T08:16:11.726Z,4.33
2019-03-21T08:18:31.966Z,4.50
2019-03-21T08:20:59.790Z,4.00
2019-03-21T08:23:18.116Z,3.83
2019-03-21T08:25:38.407Z,3.70
2019-03-21T08:27:59.038Z,3.97
2019-03-21T08:30:25.154Z,4.10
2019-03-21T08:32:45.561Z,3.87
2019-03-21T08:35:07.243Z,3.30
2019-03-21T08:37:27.532Z,3.70
2019-03-21T08:39:48.345Z,3.93
2019-03-21T08:42:08.779Z,3.60
2019-03-21T08:44:29.014Z,4.07
2019-03-21T08:46:49.358Z,3.77
2019-03-21T08:49:09.588Z,3.90
2019-03-21T08:51:29.836Z,4.23
2019-03-21T08:53:50.094Z,3.93
2019-03-21T08:56:10.323Z,4.60
2019-03-21T08:58:30.578Z,3.70
2019-03-21T09:00:50.976Z,4.10
2019-03-21T09:03:11.166Z,3.50
2019-03-21T09:05:32.980Z,4.33
2019-03-21T09:07:55.313Z,3.83
2019-03-21T09:10:15.439Z,4.30
2019-03-21T09:12:35.865Z,4.10
2019-03-21T09:14:56.088Z,4.03
2019-03-21T09:17:17.441Z,3.87
2019-03-21T09:19:37.797Z,3.97
2019-03-21T09:21:58.071Z,4.33
2019-03-21T09:24:18.354Z,3.60
2019-03-21T09:26:38.561Z,4.10
2019-03-21T09:28:58.734Z,4.20
2019-03-21T09:31:19.062Z,3.83
2019-03-21T09:33:39.496Z,4.10
2019-03-21T09:35:59.792Z,4.23
2019-03-21T09:38:20.056Z,4.17
2019-03-21T09:40:40.259Z,4.17
2019-03-21T09:43:02.963Z,4.13
2019-03-21T09:45:22.459Z,4.10
2019-03-21T09:47:42.685Z,4.20
2019-03-21T09:50:03.506Z,4.03
2019-03-21T09:52:23.829Z,4.70
2019-03-21T09:54:44.248Z,3.90
2019-03-21T09:57:04.736Z,3.97
2019-03-21T09:59:24.963Z,4.10
2019-03-21T10:01:45.352Z,4.30
2019-03-21T10:04:05.574Z,3.80
2019-03-21T10:06:25.922Z,3.70
2019-03-21T10:08:46.157Z,4.00
2019-03-21T10:11:06.442Z,4.30
2019-03-21T10:13:26.643Z,3.57
2019-03-21T10:15:47.033Z,3.80
2019-03-21T10:18:07.614Z,3.50
2019-03-21T10:20:29.578Z,4.63
2019-03-21T10:22:49.785Z,4.20
2019-03-21T10:25:10.247Z,4.03
2019-03-21T10:27:30.543Z,3.60
2019-03-21T10:29:51.011Z,3.90
2019-03-21T10:32:14.543Z,3.60
2019-03-21T10:34:33.307Z,3.90
2019-03-21T10:36:53.558Z,3.83
2019-03-21T10:39:13.836Z,3.80
2019-03-21T10:41:34.067Z,4.10
2019-03-21T10:43:54.402Z,4.17
2019-03-21T10:46:16.251Z,5.00
2019-03-21T10:48:36.525Z,4.63
2019-03-21T10:50:59.770Z,3.93
2019-03-21T10:53:20.035Z,4.20
2019-03-21T10:55:40.415Z,4.33
2019-03-21T10:58:00.645Z,4.03
2019-03-21T11:00:21.042Z,4.13
2019-03-21T11:02:42.319Z,4.20
2019-03-21T11:05:05.062Z,4.53
2019-03-21T11:07:24.304Z,4.70
2019-03-21T11:09:44.481Z,3.97
2019-03-21T11:12:04.815Z,4.07
2019-03-21T11:14:25.132Z,4.60
2019-03-21T11:16:45.722Z,3.97
2019-03-21T11:19:05.949Z,3.97
2019-03-21T11:21:26.372Z,3.97
2019-03-21T11:23:46.640Z,3.97
2019-03-21T11:26:07.166Z,3.90
2019-03-21T11:28:27.480Z,3.87
2019-03-21T11:30:47.870Z,4.93
2019-03-21T11:33:08.313Z,4.00
2019-03-21T11:35:28.714Z,3.90
2019-03-21T11:37:49.176Z,4.37
2019-03-21T11:40:09.776Z,3.73
2019-03-21T11:42:30.198Z,4.50
2019-03-21T11:44:50.604Z,4.03
2019-03-21T11:47:10.913Z,4.40
2019-03-21T11:49:31.175Z,3.70
2019-03-21T11:51:51.758Z,4.47
2019-03-21T11:54:12.157Z,4.57
2019-03-21T11:56:32.442Z,4.63
2019-03-21T11:58:53.693Z,4.73
2019-03-21T12:01:14.004Z,4.53
2019-03-21T12:03:34.343Z,5.27
2019-03-21T12:05:54.743Z,4.83
2019-03-21T12:08:14.933Z,5.20
2019-03-21T12:10:35.219Z,5.13
2019-03-21T12:12:55.521Z,5.23
2019-03-21T12:15:15.823Z,5.57
2019-03-21T12:17:36.143Z,4.70
2019-03-21T12:19:56.411Z,4.47
2019-03-21T12:22:17.409Z,4.43
2019-03-21T12:24:38.994Z,4.60
2019-03-21T12:26:59.341Z,4.63
2019-03-21T12:29:19.641Z,4.30
2019-03-21T12:31:40.139Z,4.47
2019-03-21T12:34:06.363Z,5.03
2019-03-21T12:36:26.589Z,4.80
2019-03-21T12:38:46.858Z,4.73
2019-03-21T12:41:07.399Z,4.87
2019-03-21T12:43:27.808Z,4.40
2019-03-21T12:45:48.073Z,4.50
2019-03-21T12:48:08.356Z,4.83
2019-03-21T12:50:28.660Z,4.97
2019-03-21T12:52:50.210Z,4.93
2019-03-21T12:55:10.845Z,4.70
2019-03-21T12:57:31.098Z,5.17
2019-03-21T12:59:51.331Z,4.53
2019-03-21T13:02:11.652Z,4.73
2019-03-21T13:04:32.036Z,4.30
2019-03-21T13:06:52.280Z,4.93
2019-03-21T13:09:12.537Z,5.33
2019-03-21T13:11:32.857Z,5.20
2019-03-21T13:13:53.507Z,5.50
2019-03-21T13:16:15.820Z,4.87
2019-03-21T13:18:35.694Z,5.40
2019-03-21T13:20:55.986Z,5.27
2019-03-21T13:23:16.305Z,5.03
2019-03-21T13:25:36.823Z,5.47
2019-03-21T13:27:57.366Z,5.40
2019-03-21T13:30:18.083Z,5.13
2019-03-21T13:32:38.497Z,4.77
2019-03-21T13:34:59.846Z,5.87
2019-03-21T13:37:21.299Z,5.47
2019-03-21T13:39:41.188Z,5.25
2019-03-21T13:42:01.190Z,5.50
2019-03-21T13:44:21.159Z,5.17
2019-03-21T13:46:41.184Z,5.28
2019-03-21T13:49:01.101Z,5.20
2019-03-21T13:51:21.414Z,5.70
2019-03-21T13:53:41.610Z,5.27
2019-03-21T13:56:01.755Z,5.20
2019-03-21T13:58:21.951Z,5.57
2019-03-21T14:00:42.358Z,5.30
2019-03-21T14:03:02.660Z,5.27
2019-03-21T14:05:22.846Z,5.50
2019-03-21T14:07:43.161Z,5.40
2019-03-21T14:10:04.940Z,5.37
2019-03-21T14:12:25.263Z,6.03
2019-03-21T14:14:45.536Z,5.67
2019-03-21T14:17:05.859Z,6.20
2019-03-21T14:19:26.228Z,5.43
2019-03-21T14:21:47.535Z,5.27
2019-03-21T14:24:07.811Z,5.67
2019-03-21T14:26:28.080Z,5.77
2019-03-21T14:28:48.327Z,5.70
2019-03-21T14:31:08.558Z,5.97
2019-03-21T14:33:28.839Z,6.07
2019-03-21T14:35:49.127Z,5.47
2019-03-21T14:38:09.373Z,6.07
2019-03-21T14:40:29.589Z,5.73
2019-03-21T14:42:49.933Z,5.47
2019-03-21T14:45:16.252Z,5.37
2019-03-21T14:47:36.699Z,6.00
2019-03-21T14:49:57.198Z,6.20
2019-03-21T14:52:17.545Z,6.40
2019-03-21T14:54:37.881Z,6.63
2019-03-21T14:56:58.291Z,6.50
2019-03-21T14:59:18.711Z,6.37
2019-03-21T15:01:40.771Z,6.53
2019-03-21T15:04:00.924Z,5.70
2019-03-21T15:06:22.433Z,6.47
2019-03-21T15:08:42.748Z,5.30
2019-03-21T15:11:03.139Z,6.23
2019-03-21T15:13:23.577Z,6.13
2019-03-21T15:15:43.884Z,5.40
2019-03-21T15:18:04.299Z,5.50
2019-03-21T15:20:24.578Z,5.93
2019-03-21T15:22:46.136Z,5.43
2019-03-21T15:25:10.236Z,6.13
2019-03-21T15:27:30.510Z,5.60
2019-03-21T15:29:50.760Z,5.63
2019-03-21T15:32:11.083Z,5.23
2019-03-21T15:34:31.350Z,6.00
2019-03-21T15:36:51.619Z,4.80
2019-03-21T15:39:11.881Z,5.40
2019-03-21T15:41:32.254Z,4.83
2019-03-21T15:43:52.505Z,5.00
2019-03-21T15:46:12.763Z,5.43
2019-03-21T15:48:33.281Z,5.43
2019-03-21T15:51:03.871Z,5.50
2019-03-21T15:53:15.346Z,5.57
2019-03-21T15:55:35.734Z,5.30
2019-03-21T15:57:56.241Z,5.70
2019-03-21T16:00:19.564Z,5.20
2019-03-21T16:02:39.945Z,5.03
2019-03-21T16:05:03.380Z,5.37
2019-03-21T16:07:23.708Z,5.40
2019-03-21T16:09:44.100Z,5.60
2019-03-21T16:14:25.975Z,5.42
2019-03-21T16:16:46.115Z,5.75
2019-03-21T16:19:06.360Z,5.47
2019-03-21T16:21:26.912Z,5.30
2019-03-21T16:23:46.876Z,5.37
2019-03-21T16:26:06.946Z,5.47
2019-03-21T16:28:27.507Z,5.53
2019-03-21T16:30:47.487Z,5.10
2019-03-21T16:33:07.649Z,5.70
2019-03-21T16:35:28.313Z,6.15
2019-03-21T16:37:48.873Z,5.83
2019-03-21T16:40:14.222Z,5.85
2019-03-21T16:42:37.083Z,5.35
2019-03-21T16:44:57.160Z,6.40
2019-03-21T16:47:17.743Z,5.97
2019-03-21T16:49:38.337Z,5.78
2019-03-21T16:52:01.410Z,5.90
2019-03-21T16:54:21.674Z,6.62
2019-03-21T16:56:41.646Z,6.03
2019-03-21T16:59:02.210Z,6.17
2019-03-21T17:01:22.795Z,5.83
2019-03-21T17:03:42.704Z,5.87
2019-03-21T17:06:02.684Z,5.97
2019-03-21T17:08:23.241Z,6.35
2019-03-21T17:10:43.939Z,6.65
2019-03-21T17:13:04.641Z,7.15
2019-03-21T17:15:25.468Z,6.15
2019-03-21T17:17:45.508Z,6.22
2019-03-21T17:20:07.460Z,6.72
2019-03-21T17:22:28.015Z,5.97
2019-03-21T17:24:48.641Z,6.62
2019-03-21T17:27:09.211Z,6.40
2019-03-21T17:29:29.848Z,5.75
2019-03-21T17:31:50.692Z,6.58
2019-03-21T17:34:11.309Z,6.62
2019-03-21T17:36:31.843Z,6.53
2019-03-21T17:38:52.397Z,7.03
2019-03-21T17:41:12.991Z,7.03
2019-03-21T17:43:33.539Z,7.40
2019-03-21T17:45:54.328Z,6.85
2019-03-21T17:48:14.890Z,7.35
2019-03-21T17:50:35.494Z,8.33
2019-03-21T17:52:56.099Z,8.13
2019-03-21T17:55:22.716Z,7.92
2019-03-21T17:57:43.575Z,8.03
2019-03-21T18:00:09.905Z,8.28
2019-03-21T18:02:30.670Z,8.35
2019-03-21T18:04:51.274Z,8.38
2019-03-21T18:07:12.873Z,8.40
2019-03-21T18:09:33.408Z,9.48
2019-03-21T18:11:54.041Z,10.05
2019-03-21T18:14:14.670Z,9.30
2019-03-21T18:16:35.420Z,10.98
2019-03-21T18:18:56.157Z,10.13
2019-03-21T18:21:16.775Z,9.65
2019-03-21T18:23:42.332Z,10.10
2019-03-21T18:26:02.945Z,9.95
2019-03-21T18:28:23.655Z,11.20
2019-03-21T18:30:44.221Z,10.98
2019-03-21T18:33:04.928Z,12.85
2019-03-21T18:35:25.644Z,13.05
2019-03-21T18:37:46.181Z,13.05
2019-03-21T18:40:09.937Z,12.23
2019-03-21T18:42:30.237Z,10.98
2019-03-21T18:44:50.714Z,10.30
2019-03-21T18:47:11.769Z,10.85
2019-03-21T18:49:32.309Z,11.05
2019-03-21T18:51:52.860Z,10.93
2019-03-21T18:54:13.419Z,11.70
2019-03-21T18:56:34.020Z,11.78
2019-03-21T18:58:54.603Z,12.15
2019-03-21T19:01:16.188Z,12.53
2019-03-21T19:03:37.685Z,12.00
2019-03-21T19:05:58.742Z,11.33
2019-03-21T19:08:19.276Z,12.10
2019-03-21T19:10:39.947Z,12.13
2019-03-21T19:13:00.519Z,12.10
2019-03-21T19:15:21.389Z,11.43
2019-03-21T19:17:42.611Z,13.78
2019-03-21T19:20:04.216Z,13.00
2019-03-21T19:22:24.773Z,13.00
2019-03-21T19:24:45.408Z,12.73
2019-03-21T19:27:05.929Z,12.63
2019-03-21T19:29:26.544Z,13.25
2019-03-21T19:31:47.039Z,12.30
2019-03-21T19:34:07.736Z,11.70
2019-03-21T19:36:28.346Z,12.13
2019-03-21T19:38:48.873Z,11.57
2019-03-21T19:41:09.612Z,11.70
2019-03-21T19:43:30.321Z,12.35
2019-03-21T19:45:51.809Z,12.43
2019-03-21T19:48:12.447Z,12.07
2019-03-21T19:50:32.930Z,11.80
2019-03-21T19:52:53.516Z,11.78
2019-03-21T19:55:14.444Z,12.07
2019-03-21T19:57:36.117Z,12.15
2019-03-21T19:59:56.759Z,11.88
2019-03-21T20:02:17.362Z,12.58
2019-03-21T20:04:38.288Z,12.50
2019-03-21T20:06:58.842Z,11.33
2019-03-21T20:09:19.396Z,11.38
2019-03-21T20:11:39.935Z,11.03
2019-03-21T20:14:00.576Z,10.25
2019-03-21T20:16:21.166Z,10.53
2019-03-21T20:18:41.829Z,11.43
2019-03-21T20:21:02.896Z,11.80
2019-03-21T20:23:25.491Z,11.35
2019-03-21T20:25:46.096Z,10.98
2019-03-21T20:28:07.000Z,10.28
2019-03-21T20:30:27.679Z,10.18
2019-03-21T20:32:48.300Z,11.60
2019-03-21T20:35:10.380Z,11.60
2019-03-21T20:37:30.894Z,12.47
2019-03-21T20:39:52.984Z,11.43
2019-03-21T20:42:13.636Z,11.12
2019-03-21T20:44:34.265Z,10.18
2019-03-21T20:46:54.910Z,10.85
2019-03-21T20:49:15.604Z,12.78
2019-03-21T20:51:36.138Z,11.80
2019-03-21T20:53:56.698Z,10.00
2019-03-21T20:56:17.343Z,9.40
2019-03-21T20:58:39.661Z,10.30
2019-03-21T21:01:00.468Z,11.15
2019-03-21T21:03:21.085Z,12.03
2019-03-21T21:05:43.720Z,11.53
2019-03-21T21:08:04.459Z,12.90
2019-03-21T21:10:25.003Z,12.13
2019-03-21T21:12:45.662Z,11.30
2019-03-21T21:15:08.127Z,11.73
2019-03-21T21:17:32.659Z,12.00
2019-03-21T21:19:53.161Z,11.90
2019-03-21T21:22:13.825Z,11.83
2019-03-21T21:24:35.489Z,11.85
2019-03-21T21:27:01.553Z,12.70
2019-03-21T21:29:22.053Z,12.33
2019-03-21T21:31:43.032Z,11.85
2019-03-21T21:34:05.427Z,12.33
2019-03-21T21:36:25.877Z,12.85
2019-03-21T21:38:46.467Z,12.25
2019-03-21T21:41:07.202Z,11.90
2019-03-21T21:43:27.899Z,12.65
2019-03-21T21:45:48.549Z,12.37
2019-03-21T21:48:09.213Z,11.93
2019-03-21T21:50:29.809Z,12.88
2019-03-21T21:52:50.276Z,13.00
2019-03-21T21:55:11.128Z,12.63
2019-03-21T21:57:34.114Z,14.73
2019-03-21T21:59:56.735Z,13.43
2019-03-21T22:02:20.787Z,14.00
2019-03-21T22:05:04.364Z,13.30
2019-03-21T22:07:27.688Z,13.93
2019-03-21T22:09:55.874Z,13.03
2019-03-21T22:12:25.259Z,12.82
2019-03-21T22:17:36.606Z,14.28
2019-03-21T22:20:06.119Z,13.50
2019-03-21T22:22:26.523Z,13.40
2019-03-21T22:24:47.187Z,14.53
2019-03-21T22:27:07.869Z,15.18
2019-03-21T22:29:28.423Z,13.60
2019-03-21T22:31:49.177Z,13.55
2019-03-21T22:34:09.787Z,13.28
2019-03-21T22:36:31.409Z,15.78
2019-03-21T22:38:52.051Z,15.85
2019-03-21T22:41:12.507Z,14.58
2019-03-21T22:43:33.072Z,14.80
2019-03-21T22:45:54.716Z,15.55
2019-03-21T22:48:15.295Z,15.15
2019-03-21T22:50:35.864Z,13.68
2019-03-21T22:52:56.745Z,14.28
2019-03-21T22:55:17.790Z,14.35
2019-03-21T22:57:39.191Z,13.72
2019-03-21T22:59:59.668Z,14.20
2019-03-21T23:02:20.468Z,15.32
2019-03-21T23:04:41.164Z,13.95
2019-03-21T23:07:11.027Z,15.28
2019-03-21T23:09:26.639Z,15.78
2019-03-21T23:11:47.206Z,15.88
2019-03-21T23:14:09.772Z,15.65
2019-03-21T23:16:30.190Z,15.78
2019-03-21T23:18:50.775Z,15.25
2019-03-21T23:21:14.562Z,15.18
2019-03-21T23:23:35.048Z,15.35
2019-03-21T23:25:55.642Z,15.20
2019-03-21T23:28:16.533Z,15.30
2019-03-21T23:30:37.861Z,15.10
2019-03-21T23:32:58.387Z,15.95
2019-03-21T23:35:20.165Z,15.78
2019-03-21T23:37:40.839Z,15.08
2019-03-21T23:40:01.451Z,13.80
2019-03-21T23:42:23.249Z,14.58
2019-03-21T23:44:43.705Z,15.05
2019-03-21T23:47:05.350Z,15.05
2019-03-21T23:49:26.851Z,15.20
2019-03-21T23:51:47.436Z,16.07
2019-03-21T23:54:08.283Z,16.62
2019-03-21T23:56:28.831Z,16.17
2019-03-21T23:58:49.390Z,15.23
